Nearby METAR Reports

 

KMGY - Dayton, Ohio, USA
Distance from station: N 3mi, 5km
Updated: Mon, 18-Nov-2019 9:53pm EST
Haze, Overcast
Haze, Overcast
 Wind from WSW
Wind: WSW 6 mph , 9 km/h
Temperature: 41°F , 5°C
Wind Chill: 37°F , 3°C
Dew Point: 36°F , 2°C
Humidity: 81%
Barometer: 29.78 inHg , 1008.5 hPa
Summary: Haze
Clouds: Overcast
Visibility: 5 miles , 8 km
Cloud details: Overcast 700 ft
2019/11/19 02:53 KMGY 190253Z AUTO 24005KT 5SM HZ OVC007 05/02 A2978 RMK AO2 SLP087 T00500022 58000
KMWO - Middletown/Hook, Ohio, USA
Distance from station: W 9mi, 14km
Updated: Mon, 18-Nov-2019 9:55pm EST
Overcast
Overcast
 Wind from WSW
Wind: WSW 7 mph , 11 km/h
Temperature: 39°F , 4°C
Wind Chill: 34°F , 1°C
Dew Point: 37°F , 3°C
Humidity: 93%
Barometer: 29.81 inHg , 1009.5 hPa
Clouds: Overcast
Visibility: 7 miles , 11 km
Cloud details: Overcast 1000 ft
2019/11/19 02:55 KMWO 190255Z AUTO 25006KT 7SM OVC010 04/03 A2981 RMK AO2 T00440030
 
KHAO - Hamilton, Ohio, USA
Distance from station: SW 20mi, 32km
Updated: Mon, 18-Nov-2019 9:53pm EST
Overcast
Overcast
 Wind from W
Wind: W 5 mph , 7 km/h
Temperature: 39°F , 4°C
Wind Chill: 35°F , 2°C
Dew Point: 32°F , 0°C
Humidity: 75%
Barometer: 29.81 inHg , 1009.5 hPa
Clouds: Overcast
Visibility: 8 miles , 13 km
Cloud details: Mostly cloudy 1000 ft
Overcast 2900 ft
2019/11/19 02:53 KHAO 190253Z AUTO 27004KT 8SM BKN010 OVC029 04/00 A2981 RMK AO2 SLP098 T00440000 58000
KFFO - Wright Paterson, Ohio, USA
Distance from station: NNE 21mi, 34km
Updated: Mon, 18-Nov-2019 8:56pm EST
Mist, Overcast
Mist, Overcast
 Wind from WSW
Wind: WSW 8 mph , 13 km/h
Temperature: 41°F , 5°C
Wind Chill: 36°F , 2°C
Dew Point: 37°F , 3°C
Humidity: 87%
Barometer: 29.78 inHg , 1008.5 hPa
Summary: Mist
Clouds: Overcast
Visibility: 4 miles , 6 km
Cloud details: Overcast 800 ft
2019/11/19 01:56 KFFO 190156Z 25007KT 4SM BR OVC008 05/03 A2978 RMK AO2A SLP093 T00460028 $
 
KDAY - Dayton, Ohio, USA
Distance from station: N 24mi, 39km
Updated: Mon, 18-Nov-2019 9:56pm EST
Mist, Overcast
Mist, Overcast
 Wind from W
Wind: W 8 mph , 13 km/h
Temperature: 39°F , 4°C
Wind Chill: 33°F , 1°C
Dew Point: 37°F , 3°C
Humidity: 93%
Barometer: 29.78 inHg , 1008.5 hPa
Summary: Mist
Clouds: Overcast
Visibility: 6 miles , 10 km
Cloud details: Overcast 600 ft
2019/11/19 02:56 KDAY 190256Z 26007KT 6SM BR OVC006 04/03 A2978 RMK AO2 SLP090 T00440028 55000
KILN - Wilmington, Ohio, USA
Distance from station: ESE 25mi, 39km
Updated: Mon, 18-Nov-2019 9:54pm EST
Mist, Overcast
Mist, Overcast
 Wind from W
Wind: W 7 mph , 11 km/h
Temperature: 39°F , 4°C
Wind Chill: 34°F , 1°C
Dew Point: 37°F , 3°C
Humidity: 93%
Barometer: 29.78 inHg , 1008.5 hPa
Summary: Mist
Clouds: Overcast
Visibility: 6 miles , 10 km
Cloud details: Overcast 2000 ft
2019/11/19 02:54 KILN 190254Z AUTO 27006KT 6SM BR OVC020 04/03 A2978 RMK AO2 SLP101 T00390028 50002
 
KSGH - Springfield Muni, Ohio, USA
Distance from station: NE 29mi, 46km
Updated: Mon, 18-Nov-2019 9:56pm EST
Mist, Overcast
Mist, Overcast
 Wind from WSW
Wind: WSW 7 mph , 11 km/h
Temperature: 39°F , 4°C
Wind Chill: 34°F , 1°C
Dew Point: 37°F , 3°C
Humidity: 93%
Barometer: 29.77 inHg , 1008.1 hPa
Summary: Mist
Clouds: Overcast
Visibility: 5 miles , 8 km
Cloud details: Overcast 800 ft
2019/11/19 02:56 KSGH 190256Z AUTO 25006KT 5SM BR OVC008 04/03 A2977 RMK AO2 SLP090 6//// T00390033 51002 PNO $
KI69 - Batavia, Ohio, USA
Distance from station: S 32mi, 52km
Updated: Mon, 18-Nov-2019 9:58pm EST
Overcast
Overcast
 Wind from WSW
Wind: WSW 6 mph , 9 km/h
Temperature: 41°F , 5°C
Wind Chill: 37°F , 3°C
Dew Point: 39°F , 4°C
Humidity: 93%
Barometer: 29.81 inHg , 1009.5 hPa
Clouds: Overcast
Visibility: 7 miles , 11 km
Cloud details: Overcast 900 ft
2019/11/19 02:58 KI69 190258Z AUTO 24005KT 7SM OVC009 05/04 A2981 RMK AO2 T00450035
 
KLUK - Cincinnat/Lunken, Ohio, USA
Distance from station: SSW 33mi, 53km
Updated: Mon, 18-Nov-2019 9:53pm EST
Mist, Overcast
Mist, Overcast
 Wind from WSW
Wind: WSW 5 mph , 7 km/h
Temperature: 41°F , 5°C
Wind Chill: 38°F , 3°C
Dew Point: 39°F , 4°C
Humidity: 93%
Barometer: 29.82 inHg , 1009.8 hPa
Summary: Mist
Clouds: Overcast
Visibility: 5 miles , 8 km
Cloud details: Mostly cloudy 700 ft
Mostly cloudy 1300 ft
Overcast 2100 ft
2019/11/19 02:53 KLUK 190253Z 25004KT 5SM BR BKN007 BKN013 OVC021 05/04 A2982 RMK AO2 RAB30E43 CIG 006V011 SLP100 P0000 60000 T00500039 50001
KCVG - Covington, Kentucky, USA
Distance from station: SSW 42mi, 67km
Updated: Mon, 18-Nov-2019 9:52pm EST
Mist, Overcast
Mist, Overcast
 Wind from WSW
Wind: WSW 6 mph , 9 km/h
Temperature: 39°F , 4°C
Wind Chill: 35°F , 2°C
Dew Point: 36°F , 2°C
Humidity: 87%
Barometer: 29.80 inHg , 1009.1 hPa
Summary: Mist
Clouds: Overcast
Visibility: 5 miles , 8 km
Cloud details: Few Clouds 600 ft
Overcast 2500 ft
2019/11/19 02:52 KCVG 190252Z 24005KT 5SM BR FEW006 OVC025 04/02 A2980 RMK AO2 DZE10 SLP092 P0000 60000 T00390022 50001
 
KVES - Versailles, Ohio, USA
Distance from station: NNW 47mi, 76km
Updated: Mon, 18-Nov-2019 9:55pm EST
Mist
Mist
 Wind from W
Wind: W 3 mph , 6 km/h
Temperature: 37°F , 3°C
Dew Point: 36°F , 2°C
Humidity: 93%
Barometer: 29.77 inHg , 1008.1 hPa
Summary: Mist
Visibility: 5 miles , 8 km
2019/11/19 02:55 KVES 190255Z AUTO 28003KT 5SM BR 03/02 A2977 RMK AO2